F/V Les Vikings 2 — FGQU — position and weather

sailwx.info

Track history (hours):
 
Tides and Currents Weather Stations Pressure Air Temp Water Temp Dewpoint Dewpoint Depression Visibility Wind Speed Wind Dir Waves Ship Positions

F/V Les Vikings 2

Last reported at 2018-Feb-20 16:56 UTC. Time now 2018-Feb-24 14:38 UTC.
Position N 47°18' W 002°42'.

Length 20 m.

Type: Fishing. MMSI: 228133000.

Date/timePositionNaut miles runAvg speedWind from/ knotsBaromVisibWave heightAir tempDewpointWater temp
2018-Feb-20 16:56N 47°18' W 002°42'4 9.1
2018-Feb-20 16:30N 47°19' W 002°36'  
2018-Feb-16 17:02N 47°21' W 002°31'0 0.0
2018-Feb-16 16:53N 47°21' W 002°31'0 0.0
2018-Feb-16 14:18N 47°21' W 002°31'3 9.4
2018-Feb-16 14:00N 47°20' W 002°35'7 9.9
2018-Feb-16 13:18N 47°19' W 002°45'310.1
2018-Feb-16 12:59N 47°19' W 002°49'4 8.3
2018-Feb-16 12:29N 47°19' W 002°56'4 8.9
2018-Feb-16 11:59N 47°20' W 003°02'4 8.9
2018-Feb-16 11:30N 47°22' W 003°07'5 9.0
2018-Feb-16 11:00N 47°24' W 003°14'4 7.9
2018-Feb-16 10:30N 47°26' W 003°19'4 7.9
2018-Feb-16 10:00N 47°27' W 003°24'5 9.1
2018-Feb-16 09:30N 47°29' W 003°30'5 9.0
2018-Feb-16 08:59N 47°31' W 003°37'5 9.0
2018-Feb-16 08:28N 47°32' W 003°43'  
2018-Feb-12 14:37N 47°19' W 002°34'1 9.4
2018-Feb-12 14:29N 47°19' W 002°33'2 0.1
2018-Feb-11 10:20N 47°21' W 002°31'3 7.8
2018-Feb-11 09:55N 47°19' W 002°34'5 8.8
2018-Feb-11 09:24N 47°15' W 002°37'  
Track history (hours):
 
Tides and Currents Weather Stations Pressure Air Temp Water Temp Dewpoint Dewpoint Depression Visibility Wind Speed Wind Dir Waves Ship Positions

F/V Les Vikings 2

Last reported at 2018-Feb-20 16:56 UTC. Time now 2018-Feb-24 14:38 UTC.
Position N 47°18' W 002°42'.

Length 20 m.

Type: Fishing. MMSI: 228133000.

Date/timePositionNaut miles runAvg speedWind from/ knotsBaromVisibWave heightAir tempDewpointWater temp
2018-Feb-20 16:56N 47°18' W 002°42'4 9.1
2018-Feb-20 16:30N 47°19' W 002°36'  
2018-Feb-16 17:02N 47°21' W 002°31'0 0.0
2018-Feb-16 16:53N 47°21' W 002°31'0 0.0
2018-Feb-16 14:18N 47°21' W 002°31'3 9.4
2018-Feb-16 14:00N 47°20' W 002°35'7 9.9
2018-Feb-16 13:18N 47°19' W 002°45'310.1
2018-Feb-16 12:59N 47°19' W 002°49'4 8.3
2018-Feb-16 12:29N 47°19' W 002°56'4 8.9
2018-Feb-16 11:59N 47°20' W 003°02'4 8.9
2018-Feb-16 11:30N 47°22' W 003°07'5 9.0
2018-Feb-16 11:00N 47°24' W 003°14'4 7.9
2018-Feb-16 10:30N 47°26' W 003°19'4 7.9
2018-Feb-16 10:00N 47°27' W 003°24'5 9.1
2018-Feb-16 09:30N 47°29' W 003°30'5 9.0
2018-Feb-16 08:59N 47°31' W 003°37'5 9.0
2018-Feb-16 08:28N 47°32' W 003°43'  
2018-Feb-12 14:37N 47°19' W 002°34'1 9.4
2018-Feb-12 14:29N 47°19' W 002°33'2 0.1
2018-Feb-11 10:20N 47°21' W 002°31'3 7.8
2018-Feb-11 09:55N 47°19' W 002°34'5 8.8
2018-Feb-11 09:24N 47°15' W 002°37'  

Dump ship's entire track history